Time;durP1;ratioP1;P1;durP2;ratioP2;P2;SDS_P1;SDS_P2;PMS_P1;PMS_P2;Temp;Humidity;BMP_temperature;BMP_pressure;BME280_temperature;BME280_humidity;BME280_pressure;Samples;Min_cycle;Max_cycle;Signal;HPM_P1;HPM_P2
2023/06/28 00:03:25;;;;;;;4.13;1.80;;;21.00;64.00;;;;;;10215822;28;20227;-73
2023/06/28 00:08:25;;;;;;;4.03;1.87;;;21.00;64.30;;;;;;10216960;28;20227;-75
2023/06/28 00:13:26;;;;;;;3.70;1.63;;;20.90;64.50;;;;;;10225439;28;20235;-75
2023/06/28 00:18:29;;;;;;;5.10;1.67;;;20.80;64.90;;;;;;10224863;28;20447;-74
2023/06/28 00:23:30;;;;;;;5.40;1.80;;;20.80;65.40;;;;;;10226919;28;20310;-73
2023/06/28 00:28:30;;;;;;;3.60;2.30;;;20.80;65.60;;;;;;10219746;28;20319;-75
2023/06/28 00:33:31;;;;;;;4.53;2.07;;;20.80;65.80;;;;;;10229239;28;20263;-74
2023/06/28 00:38:34;;;;;;;4.67;2.00;;;20.70;66.00;;;;;;10226978;28;20310;-73
2023/06/28 00:43:35;;;;;;;5.70;1.87;;;20.60;66.40;;;;;;10216846;28;20219;-73
2023/06/28 00:48:36;;;;;;;4.53;1.73;;;20.50;66.80;;;;;;10227978;28;20312;-73
2023/06/28 00:53:42;;;;;;;5.03;1.90;;;20.50;66.70;;;;;;10226582;28;20318;-75
2023/06/28 00:58:43;;;;;;;4.50;2.03;;;20.50;66.50;;;;;;10228940;28;20234;-75
2023/06/28 01:03:44;;;;;;;4.23;1.83;;;20.50;67.00;;;;;;10226654;28;20235;-74
2023/06/28 01:08:45;;;;;;;3.47;2.00;;;20.40;67.10;;;;;;10219987;28;20227;-73
2023/06/28 01:13:46;;;;;;;4.30;2.43;;;20.40;67.20;;;;;;10234091;28;20228;-73
2023/06/28 01:18:47;;;;;;;5.67;2.00;;;20.30;67.30;;;;;;10220260;28;20235;-73
2023/06/28 01:23:48;;;;;;;3.50;2.00;;;20.40;67.20;;;;;;10225149;28;20224;-73
2023/06/28 01:28:49;;;;;;;3.43;1.60;;;20.30;67.40;;;;;;10220108;28;20222;-73
2023/06/28 01:33:50;;;;;;;3.60;2.00;;;20.30;66.10;;;;;;10240598;28;20224;-73
2023/06/28 01:38:52;;;;;;;3.90;1.60;;;20.30;65.70;;;;;;10226823;28;20549;-73
2023/06/28 01:43:52;;;;;;;3.00;1.80;;;20.30;65.50;;;;;;10224029;28;20753;-75
2023/06/28 01:48:53;;;;;;;5.57;1.70;;;20.30;65.50;;;;;;10226519;28;20231;-73
2023/06/28 01:53:53;;;;;;;3.57;1.70;;;20.30;65.50;;;;;;10223220;28;20240;-74
2023/06/28 01:58:54;;;;;;;2.87;1.50;;;20.40;65.60;;;;;;10226135;28;20765;-74
2023/06/28 02:03:58;;;;;;;2.03;1.57;;;20.30;65.60;;;;;;10223047;28;20592;-73
2023/06/28 02:08:58;;;;;;;4.07;1.70;;;20.30;67.00;;;;;;10228722;28;20354;-74
2023/06/28 02:13:59;;;;;;;3.33;1.40;;;20.30;66.30;;;;;;10243518;28;20285;-75
2023/06/28 02:19:02;;;;;;;2.00;1.43;;;20.30;66.30;;;;;;10222563;28;20231;-74
2023/06/28 02:24:03;;;;;;;3.00;1.40;;;20.30;66.30;;;;;;10227462;28;20225;-73
2023/06/28 02:29:04;;;;;;;2.43;1.73;;;20.30;66.30;;;;;;10228167;28;20817;-73
2023/06/28 02:34:04;;;;;;;3.57;1.63;;;20.20;66.60;;;;;;10220838;28;20319;-74
2023/06/28 02:39:05;;;;;;;3.10;1.70;;;20.20;66.80;;;;;;10225982;28;20230;-73
2023/06/28 02:44:06;;;;;;;7.30;2.77;;;20.20;67.10;;;;;;10218786;28;20269;-75
2023/06/28 02:49:07;;;;;;;4.93;2.10;;;20.20;67.30;;;;;;10226183;28;20253;-73
2023/06/28 02:54:09;;;;;;;4.67;1.90;;;20.20;67.40;;;;;;10226507;28;20227;-75
2023/06/28 02:59:09;;;;;;;4.30;1.80;;;20.10;67.80;;;;;;10224461;28;20278;-73
2023/06/28 03:04:12;;;;;;;4.33;1.77;;;20.00;68.20;;;;;;10240321;28;20284;-74
2023/06/28 03:09:13;;;;;;;3.53;1.60;;;20.00;68.70;;;;;;10218470;28;20244;-74
2023/06/28 03:14:13;;;;;;;5.30;2.63;;;19.90;69.20;;;;;;10235280;28;20266;-74
2023/06/28 03:19:14;;;;;;;3.37;1.63;;;19.90;69.60;;;;;;10226395;28;20282;-75
2023/06/28 03:24:15;;;;;;;6.47;2.17;;;19.80;69.80;;;;;;10231496;28;20820;-73
2023/06/28 03:29:15;;;;;;;4.50;1.80;;;19.90;70.10;;;;;;10216710;28;20224;-75
2023/06/28 03:34:16;;;;;;;4.70;2.00;;;19.90;70.30;;;;;;10225276;28;20235;-74
2023/06/28 03:39:18;;;;;;;3.80;1.93;;;19.80;70.50;;;;;;10229341;28;20316;-73
2023/06/28 03:44:18;;;;;;;6.17;1.80;;;19.80;71.00;;;;;;10217939;28;20220;-75
2023/06/28 03:49:22;;;;;;;7.43;2.13;;;19.70;71.20;;;;;;10224676;28;20294;-74
2023/06/28 03:54:23;;;;;;;3.63;1.83;;;19.70;71.80;;;;;;10225523;28;20691;-74
2023/06/28 03:59:23;;;;;;;6.10;1.63;;;19.70;72.00;;;;;;10224163;28;20238;-75
2023/06/28 04:04:24;;;;;;;3.83;1.97;;;19.70;72.10;;;;;;10222867;28;20232;-73
2023/06/28 04:09:24;;;;;;;8.03;2.30;;;19.80;72.10;;;;;;10223630;28;20304;-74
2023/06/28 04:14:25;;;;;;;6.17;2.27;;;19.80;72.00;;;;;;10218696;28;20809;-74
2023/06/28 04:19:26;;;;;;;4.57;2.10;;;19.80;72.00;;;;;;10222646;28;20235;-73
2023/06/28 04:24:26;;;;;;;4.07;1.87;;;19.80;71.80;;;;;;10217882;28;20242;-75
2023/06/28 04:29:27;;;;;;;3.77;1.90;;;19.80;72.00;;;;;;10222083;28;20310;-75
2023/06/28 04:34:29;;;;;;;3.10;1.80;;;19.80;72.00;;;;;;10225598;28;20273;-74
2023/06/28 04:39:29;;;;;;;3.73;2.20;;;19.80;71.80;;;;;;10225070;28;20680;-74
2023/06/28 04:44:34;;;;;;;2.60;1.70;;;19.90;72.00;;;;;;10214612;28;20306;-74
2023/06/28 04:49:34;;;;;;;5.03;2.17;;;19.90;71.50;;;;;;10220725;28;20715;-74
2023/06/28 04:54:35;;;;;;;109.83;9.37;;;19.90;71.20;;;;;;10218405;28;20232;-74
2023/06/28 04:59:35;;;;;;;6.10;2.80;;;20.00;70.90;;;;;;10228718;28;20235;-74
2023/06/28 05:04:37;;;;;;;4.27;2.00;;;20.10;70.80;;;;;;10239474;28;20629;-73
2023/06/28 05:09:38;;;;;;;6.67;2.07;;;20.10;70.60;;;;;;10226877;28;20219;-74
2023/06/28 05:14:39;;;;;;;4.43;2.17;;;20.10;70.90;;;;;;10243279;28;20793;-76
2023/06/28 05:19:39;;;;;;;6.50;2.17;;;20.10;70.80;;;;;;10249310;28;20311;-74
2023/06/28 05:24:40;;;;;;;3.10;1.43;;;20.20;70.40;;;;;;10233440;28;20638;-74
2023/06/28 05:29:43;;;;;;;4.20;2.07;;;20.30;69.70;;;;;;10245249;28;20223;-73
2023/06/28 05:34:44;;;;;;;4.33;1.80;;;20.50;69.20;;;;;;10232713;28;20318;-73
2023/06/28 05:39:45;;;;;;;8.73;2.40;;;20.60;68.60;;;;;;10224801;28;20314;-74
2023/06/28 05:44:45;;;;;;;7.40;2.10;;;20.70;68.60;;;;;;10225196;28;20314;-74
2023/06/28 05:49:46;;;;;;;6.50;2.30;;;20.70;68.30;;;;;;10228378;28;20613;-74
2023/06/28 05:54:46;;;;;;;4.37;2.80;;;20.70;69.10;;;;;;10223506;28;20232;-73
2023/06/28 05:59:47;;;;;;;8.93;2.70;;;20.70;68.20;;;;;;10224790;28;20227;-74
2023/06/28 06:04:47;;;;;;;7.20;2.00;;;20.70;68.60;;;;;;10223652;28;20699;-74
2023/06/28 06:09:48;;;;;;;6.40;2.20;;;20.70;68.70;;;;;;10229779;28;20310;-75
2023/06/28 06:14:50;;;;;;;5.20;2.00;;;20.70;68.90;;;;;;10222068;28;20335;-73
2023/06/28 06:19:50;;;;;;;4.27;1.93;;;20.70;69.10;;;;;;10227694;28;20695;-74
2023/06/28 06:24:51;;;;;;;5.60;2.33;;;20.80;68.70;;;;;;10231836;28;20227;-74
2023/06/28 06:29:52;;;;;;;6.00;2.10;;;21.10;68.00;;;;;;10221875;28;20248;-73
2023/06/28 06:34:53;;;;;;;8.13;2.40;;;21.10;68.40;;;;;;10223925;28;20268;-74
2023/06/28 06:39:54;;;;;;;5.53;2.07;;;21.20;68.10;;;;;;10221279;28;20788;-73
2023/06/28 06:44:55;;;;;;;8.63;2.07;;;21.40;67.60;;;;;;10222826;28;20223;-74
2023/06/28 06:49:55;;;;;;;10.03;2.50;;;21.60;67.10;;;;;;10221195;28;20243;-73
2023/06/28 06:54:56;;;;;;;5.13;1.90;;;21.80;66.30;;;;;;10230267;28;20908;-74
2023/06/28 06:59:57;;;;;;;12.97;2.70;;;22.10;65.90;;;;;;10220728;28;20319;-73
2023/06/28 07:04:58;;;;;;;5.43;2.00;;;22.30;64.90;;;;;;10227305;28;20223;-73
2023/06/28 07:10:01;;;;;;;8.27;2.50;;;22.30;65.00;;;;;;10225564;28;20679;-75
2023/06/28 07:15:05;;;;;;;6.10;2.37;;;22.30;65.10;;;;;;10243889;28;20231;-73
2023/06/28 07:20:07;;;;;;;7.37;2.77;;;22.10;65.40;;;;;;10232314;28;20218;-74
2023/06/28 07:25:08;;;;;;;7.80;2.30;;;22.10;65.90;;;;;;10231179;28;20274;-74
2023/06/28 07:30:08;;;;;;;7.97;2.10;;;22.30;65.40;;;;;;10227955;28;20623;-74
2023/06/28 07:35:09;;;;;;;5.53;1.93;;;22.60;64.70;;;;;;10216940;28;20214;-74
2023/06/28 07:40:10;;;;;;;10.57;2.17;;;22.90;63.60;;;;;;10224735;28;20175;-73
2023/06/28 07:45:11;;;;;;;5.17;1.83;;;22.90;63.80;;;;;;10217729;28;20186;-74
2023/06/28 07:50:11;;;;;;;5.33;2.40;;;22.60;64.40;;;;;;10223424;28;20699;-75
2023/06/28 07:55:12;;;;;;;9.03;2.40;;;22.40;65.10;;;;;;10216592;28;20221;-73
2023/06/28 08:00:13;;;;;;;44.30;5.37;;;22.20;64.90;;;;;;10216304;28;20188;-73
2023/06/28 08:05:14;;;;;;;6.83;3.10;;;22.50;64.50;;;;;;10223509;28;20214;-74
2023/06/28 08:10:15;;;;;;;8.47;2.47;;;23.10;62.60;;;;;;10229777;28;20192;-74
2023/06/28 08:15:16;;;;;;;5.90;2.40;;;23.60;60.90;;;;;;10223844;28;20211;-73
2023/06/28 08:20:16;;;;;;;5.70;2.43;;;23.60;60.10;;;;;;10224944;28;20266;-74
2023/06/28 08:25:17;;;;;;;5.47;2.80;;;23.80;59.80;;;;;;10216169;28;20188;-73
2023/06/28 08:30:18;;;;;;;5.97;2.20;;;23.80;59.80;;;;;;10215778;28;20772;-74
2023/06/28 08:35:18;;;;;;;5.37;1.90;;;24.20;58.80;;;;;;10223060;28;20226;-73
2023/06/28 08:40:19;;;;;;;7.53;2.23;;;24.90;57.00;;;;;;10219033;28;20266;-73
2023/06/28 08:45:20;;;;;;;4.10;2.20;;;25.20;56.20;;;;;;10229918;28;20185;-73
2023/06/28 08:50:22;;;;;;;11.27;3.20;;;25.30;56.00;;;;;;10224001;28;20187;-73
2023/06/28 08:55:23;;;;;;;6.60;2.10;;;25.10;55.80;;;;;;10228836;28;20218;-73
2023/06/28 09:00:24;;;;;;;6.97;2.50;;;24.80;56.70;;;;;;10237621;28;20195;-74
2023/06/28 09:05:25;;;;;;;5.80;2.13;;;24.50;57.60;;;;;;10239917;28;20622;-74
2023/06/28 09:10:26;;;;;;;7.37;2.03;;;24.20;57.90;;;;;;10222932;28;20231;-74
2023/06/28 09:15:28;;;;;;;11.10;2.43;;;24.20;58.30;;;;;;10236772;28;20318;-75
2023/06/28 09:20:28;;;;;;;4.40;2.10;;;24.00;58.60;;;;;;10231428;28;20338;-73
2023/06/28 09:25:31;;;;;;;9.07;2.50;;;24.10;58.80;;;;;;10227259;28;20267;-74
2023/06/28 09:30:32;;;;;;;6.37;2.43;;;24.30;58.20;;;;;;10224109;28;20223;-74
2023/06/28 09:35:39;;;;;;;6.40;2.60;;;24.50;58.10;;;;;;10240356;28;20474;-73
2023/06/28 09:40:39;;;;;;;7.00;2.23;;;25.20;55.60;;;;;;10225536;28;20240;-74
2023/06/28 09:45:40;;;;;;;6.73;2.17;;;25.60;54.40;;;;;;10224242;28;20647;-73
2023/06/28 09:50:44;;;;;;;10.00;3.27;;;26.40;53.70;;;;;;10224430;28;20278;-73
2023/06/28 09:55:46;;;;;;;14.80;2.50;;;26.90;51.00;;;;;;10224740;28;20235;-73
2023/06/28 10:00:48;;;;;;;5.87;2.30;;;27.50;50.00;;;;;;10229192;28;20306;-74
2023/06/28 10:05:51;;;;;;;5.70;2.20;;;28.20;49.10;;;;;;10224602;28;20220;-73
2023/06/28 10:10:55;;;;;;;4.67;2.00;;;29.60;47.20;;;;;;10225955;28;20674;-74
2023/06/28 10:16:09;;;;;;;8.27;2.30;;;33.60;41.00;;;;;;10228045;28;20227;-74
2023/06/28 10:21:10;;;;;;;5.43;2.60;;;34.80;37.70;;;;;;10227345;28;20311;-73
2023/06/28 10:26:13;;;;;;;5.07;2.10;;;35.20;37.00;;;;;;10226713;28;20216;-74
2023/06/28 10:31:15;;;;;;;8.60;2.40;;;35.20;36.40;;;;;;10221799;28;21034;-74
2023/06/28 10:36:16;;;;;;;6.23;2.43;;;34.00;38.00;;;;;;10228024;28;20258;-74
2023/06/28 10:41:17;;;;;;;8.07;2.40;;;32.70;39.40;;;;;;10220407;28;20306;-74
2023/06/28 10:46:26;;;;;;;5.27;2.40;;;31.90;41.40;;;;;;10226982;28;20230;-74
2023/06/28 10:51:31;;;;;;;7.63;2.50;;;32.40;40.40;;;;;;10226210;28;20239;-74
2023/06/28 10:56:48;;;;;;;15.90;3.10;;;33.20;39.30;;;;;;10228117;28;20256;-73
2023/06/28 11:01:49;;;;;;;7.30;2.37;;;32.60;39.50;;;;;;10239259;28;20597;-75
2023/06/28 11:07:19;;;;;;;9.40;2.43;;;31.30;41.50;;;;;;10223332;28;20226;-75
2023/06/28 11:12:20;;;;;;;8.60;2.43;;;30.40;43.40;;;;;;10227843;28;20219;-74
2023/06/28 11:17:21;;;;;;;6.93;2.60;;;30.20;44.70;;;;;;10218450;28;20232;-74
2023/06/28 11:22:21;;;;;;;9.07;3.27;;;30.30;44.30;;;;;;10230241;28;20246;-74
2023/06/28 11:27:23;;;;;;;7.53;2.53;;;30.20;44.20;;;;;;10219918;28;20264;-74
2023/06/28 11:32:28;;;;;;;7.67;2.40;;;30.30;44.30;;;;;;10248855;28;20214;-74
2023/06/28 11:37:30;;;;;;;11.77;3.07;;;31.20;44.00;;;;;;10228338;28;20359;-75
2023/06/28 11:42:31;;;;;;;6.63;2.40;;;31.90;42.00;;;;;;10221966;28;20652;-74
2023/06/28 11:47:32;;;;;;;6.00;2.60;;;31.70;42.50;;;;;;10219787;28;20311;-75
2023/06/28 11:52:33;;;;;;;16.67;3.90;;;31.10;43.00;;;;;;10222630;28;20223;-75
2023/06/28 11:58:52;;;;;;;6.97;2.67;;;30.50;44.70;;;;;;10219404;28;20381;-75
2023/06/28 12:04:53;;;;;;;7.37;2.20;;;29.90;44.80;;;;;;10226096;28;20228;-74
2023/06/28 12:09:56;;;;;;;7.47;2.37;;;29.80;45.30;;;;;;10214756;28;20266;-74
2023/06/28 12:14:56;;;;;;;8.53;2.90;;;29.70;45.30;;;;;;10217887;28;20235;-74
2023/06/28 12:19:57;;;;;;;6.43;2.30;;;29.60;45.70;;;;;;10221616;28;20225;-73
2023/06/28 12:25:00;;;;;;;6.53;2.30;;;29.30;46.10;;;;;;10217659;28;20231;-75
2023/06/28 12:30:11;;;;;;;6.00;2.97;;;28.60;47.40;;;;;;10212068;28;20519;-74
2023/06/28 12:35:23;;;;;;;6.67;2.17;;;28.40;47.90;;;;;;10221175;28;20318;-73
2023/06/28 12:41:23;;;;;;;;;;;;;;;;;;;;;
2023/06/28 12:46:26;;;;;;;4.93;2.10;;;29.00;46.90;;;;;;10244301;28;20223;-73
2023/06/28 12:51:27;;;;;;;25.57;3.13;;;29.20;46.50;;;;;;10221241;28;20211;-74
2023/06/28 12:56:27;;;;;;;4.67;2.03;;;29.00;47.00;;;;;;10216555;28;20228;-75
2023/06/28 13:02:04;;;;;;;;;;;;;;;;;;;;;
2023/06/28 13:07:48;;;;;;;9.80;2.23;;;29.20;46.70;;;;;;10223085;28;20242;-74
2023/06/28 13:13:30;;;;;;;;;;;;;;;;;;;;;
2023/06/28 13:18:33;;;;;;;8.03;2.40;;;29.20;47.10;;;;;;10228663;28;20683;-74
2023/06/28 13:23:34;;;;;;;21.47;2.80;;;29.50;46.30;;;;;;10219323;28;20286;-74
2023/06/28 13:28:35;;;;;;;11.00;2.10;;;29.50;46.30;;;;;;10228633;28;20228;-74
2023/06/28 13:33:36;;;;;;;6.60;2.00;;;29.50;46.60;;;;;;10231279;28;20231;-73
2023/06/28 13:38:37;;;;;;;4.73;1.80;;;29.60;46.30;;;;;;10223587;28;20221;-74
2023/06/28 13:43:38;;;;;;;8.80;2.20;;;29.60;46.30;;;;;;10225573;28;20220;-74
2023/06/28 13:48:39;;;;;;;9.27;2.30;;;29.60;46.20;;;;;;10224548;28;20277;-73
2023/06/28 13:53:39;;;;;;;8.17;2.10;;;28.90;47.00;;;;;;10225747;28;20231;-73
2023/06/28 13:58:40;;;;;;;6.20;2.10;;;28.80;47.00;;;;;;10233869;28;20264;-73
2023/06/28 14:03:41;;;;;;;2.17;1.50;;;28.70;47.40;;;;;;10220712;28;20712;-73
2023/06/28 14:08:41;;;;;;;4.27;2.20;;;28.50;47.90;;;;;;10232257;28;20219;-74
2023/06/28 14:13:42;;;;;;;4.83;1.83;;;27.90;48.80;;;;;;10223654;28;20664;-72
2023/06/28 14:18:43;;;;;;;1.97;1.50;;;27.60;49.40;;;;;;10230180;28;20216;-74
2023/06/28 14:23:43;;;;;;;3.07;1.63;;;27.80;49.10;;;;;;10223593;28;20295;-73
2023/06/28 14:28:44;;;;;;;4.27;1.67;;;28.00;48.20;;;;;;10221699;28;20230;-73
2023/06/28 14:33:47;;;;;;;13.27;3.03;;;28.20;48.80;;;;;;10229208;28;20694;-73
2023/06/28 14:38:50;;;;;;;5.20;1.93;;;28.10;49.10;;;;;;10226459;28;20220;-73
2023/06/28 14:43:51;;;;;;;7.67;2.20;;;27.60;49.70;;;;;;10223205;28;20234;-74
2023/06/28 14:48:51;;;;;;;3.23;1.80;;;27.60;49.90;;;;;;10221475;28;20926;-74
2023/06/28 14:53:52;;;;;;;10.13;3.00;;;27.80;50.20;;;;;;10223421;28;20297;-73
2023/06/28 14:58:52;;;;;;;3.70;1.80;;;28.10;49.60;;;;;;10227262;28;20220;-73
2023/06/28 15:03:54;;;;;;;9.80;2.70;;;28.00;49.00;;;;;;10223607;28;20591;-73
2023/06/28 15:08:54;;;;;;;5.40;1.80;;;27.80;49.60;;;;;;10236457;28;20314;-74
2023/06/28 15:13:55;;;;;;;5.00;2.23;;;27.70;50.50;;;;;;10226530;28;20314;-73
2023/06/28 15:18:56;;;;;;;5.40;2.07;;;27.30;50.80;;;;;;10236373;28;20222;-74
2023/06/28 15:23:57;;;;;;;5.73;2.00;;;26.90;51.90;;;;;;10233217;28;20691;-73
2023/06/28 15:28:58;;;;;;;3.20;1.57;;;26.60;52.30;;;;;;10227493;28;20223;-70
2023/06/28 15:33:58;;;;;;;6.17;1.97;;;26.50;52.90;;;;;;10223910;28;20235;-73
2023/06/28 15:38:59;;;;;;;3.33;1.90;;;26.60;52.70;;;;;;10216894;28;20220;-74
2023/06/28 15:44:00;;;;;;;2.83;1.50;;;26.70;52.50;;;;;;10227581;28;20918;-75
2023/06/28 15:49:01;;;;;;;3.73;1.83;;;26.70;52.30;;;;;;10217107;28;20227;-69
2023/06/28 15:54:01;;;;;;;3.37;1.67;;;26.70;53.60;;;;;;10219046;28;20242;-69
2023/06/28 15:59:02;;;;;;;3.67;1.60;;;26.90;52.10;;;;;;10220737;28;20767;-68
2023/06/28 16:04:02;;;;;;;2.90;1.40;;;26.90;51.90;;;;;;10219391;28;20224;-75
2023/06/28 16:09:04;;;;;;;6.03;1.67;;;26.90;51.90;;;;;;10222591;28;20311;-70
2023/06/28 16:14:05;;;;;;;4.57;1.80;;;26.80;52.50;;;;;;10220911;28;20711;-72
2023/06/28 16:19:06;;;;;;;3.47;1.63;;;26.80;52.60;;;;;;10220889;28;20216;-71
2023/06/28 16:24:07;;;;;;;3.47;1.60;;;27.00;52.10;;;;;;10221995;28;20223;-68
2023/06/28 16:29:07;;;;;;;16.30;3.07;;;26.90;53.10;;;;;;10220848;28;20296;-72
2023/06/28 16:34:08;;;;;;;4.80;1.70;;;26.80;52.20;;;;;;10213650;28;20286;-70
2023/06/28 16:39:09;;;;;;;4.63;1.80;;;26.70;52.70;;;;;;10220269;28;20298;-69
2023/06/28 16:44:10;;;;;;;2.30;1.90;;;26.40;53.10;;;;;;10229802;28;20231;-73
2023/06/28 16:49:10;;;;;;;3.10;1.80;;;26.30;53.90;;;;;;10213488;28;20227;-71
2023/06/28 16:54:12;;;;;;;4.07;2.00;;;26.40;53.60;;;;;;10217480;28;20307;-71
2023/06/28 16:59:16;;;;;;;3.50;1.77;;;26.40;53.70;;;;;;10214036;28;20238;-70
2023/06/28 17:04:17;;;;;;;4.70;1.87;;;26.40;53.80;;;;;;10232581;28;20306;-68
2023/06/28 17:09:17;;;;;;;7.83;1.90;;;26.30;55.60;;;;;;10235546;28;20298;-70
2023/06/28 17:14:18;;;;;;;5.67;1.70;;;26.40;54.60;;;;;;10227366;28;20239;-71
2023/06/28 17:19:18;;;;;;;3.27;1.83;;;26.30;54.70;;;;;;10234290;28;20222;-70
2023/06/28 17:24:19;;;;;;;5.37;2.00;;;26.20;54.70;;;;;;10227573;28;20227;-69
2023/06/28 17:29:20;;;;;;;4.10;2.00;;;26.30;54.90;;;;;;10228876;28;20321;-69
2023/06/28 17:34:20;;;;;;;8.87;2.17;;;26.20;54.60;;;;;;10282346;28;20693;-69
2023/06/28 17:39:21;;;;;;;2.97;1.70;;;26.10;57.30;;;;;;10246614;28;20216;-67
2023/06/28 17:44:22;;;;;;;3.87;1.97;;;26.10;56.10;;;;;;10233416;28;20258;-67
2023/06/28 17:49:22;;;;;;;3.77;1.70;;;26.20;56.00;;;;;;10223431;28;20660;-67
2023/06/28 17:54:23;;;;;;;3.10;1.90;;;26.10;55.10;;;;;;10231835;28;20596;-66
2023/06/28 17:59:24;;;;;;;6.10;2.03;;;26.10;58.20;;;;;;10219291;28;20234;-67
2023/06/28 18:04:24;;;;;;;5.10;2.37;;;26.00;57.20;;;;;;10243389;28;20310;-68
2023/06/28 18:09:25;;;;;;;3.77;2.00;;;25.90;57.10;;;;;;10236112;28;20226;-69
2023/06/28 18:14:26;;;;;;;2.30;2.00;;;25.90;58.00;;;;;;10225716;28;20699;-71
2023/06/28 18:19:26;;;;;;;6.17;2.00;;;25.70;57.50;;;;;;10217545;28;20216;-67
2023/06/28 18:24:27;;;;;;;5.13;1.80;;;25.50;58.00;;;;;;10235338;28;20256;-66
2023/06/28 18:29:28;;;;;;;2.43;1.80;;;25.50;58.00;;;;;;10229706;28;20253;-66
2023/06/28 18:34:32;;;;;;;5.23;2.17;;;25.40;57.10;;;;;;10229230;28;20231;-70
2023/06/28 18:39:33;;;;;;;3.07;1.80;;;25.30;57.30;;;;;;10225682;28;20227;-71
2023/06/28 18:44:33;;;;;;;5.70;2.00;;;25.20;57.40;;;;;;10225325;28;20718;-71
2023/06/28 18:49:34;;;;;;;3.53;1.70;;;24.90;58.00;;;;;;10224305;28;20234;-70
2023/06/28 18:54:34;;;;;;;4.10;2.10;;;24.80;58.70;;;;;;10216983;28;20235;-70
2023/06/28 18:59:35;;;;;;;4.30;1.80;;;24.70;58.90;;;;;;10230566;28;20228;-70
2023/06/28 19:04:41;;;;;;;3.53;2.20;;;24.60;58.70;;;;;;10233484;28;20223;-70
2023/06/28 19:09:44;;;;;;;8.53;2.30;;;24.50;58.90;;;;;;10220517;28;20252;-71
2023/06/28 19:14:44;;;;;;;3.83;2.03;;;24.40;59.10;;;;;;10216694;28;20331;-71
2023/06/28 19:19:45;;;;;;;2.93;1.93;;;24.30;59.50;;;;;;10242235;28;20601;-70
2023/06/28 19:24:47;;;;;;;2.83;1.90;;;24.20;59.70;;;;;;10229792;28;20972;-70
2023/06/28 19:29:48;;;;;;;2.97;1.80;;;24.20;60.10;;;;;;10231201;28;20239;-69
2023/06/28 19:34:48;;;;;;;4.77;2.20;;;24.00;60.50;;;;;;10220859;28;20232;-71
2023/06/28 19:39:54;;;;;;;6.83;2.27;;;23.90;61.00;;;;;;10231690;28;20223;-70
2023/06/28 19:44:57;;;;;;;6.17;2.00;;;23.80;61.80;;;;;;10218310;28;20263;-69
2023/06/28 19:49:58;;;;;;;6.13;2.13;;;23.70;62.40;;;;;;10221335;28;20786;-69
2023/06/28 19:54:58;;;;;;;4.43;2.03;;;23.60;62.90;;;;;;10231504;28;20219;-70
2023/06/28 19:59:59;;;;;;;4.93;1.90;;;23.50;63.50;;;;;;10227650;28;20229;-70
2023/06/28 20:04:59;;;;;;;4.00;1.50;;;23.30;63.70;;;;;;10224726;28;20887;-70
2023/06/28 20:10:01;;;;;;;3.50;1.60;;;23.20;64.20;;;;;;10223027;28;20227;-69
2023/06/28 20:15:04;;;;;;;3.87;1.87;;;23.10;64.80;;;;;;10238266;28;20327;-69
2023/06/28 20:20:05;;;;;;;4.00;1.80;;;22.90;65.80;;;;;;10222554;28;20227;-71
2023/06/28 20:25:07;;;;;;;2.27;1.60;;;22.70;66.90;;;;;;10233273;28;20238;-70
2023/06/28 20:30:09;;;;;;;2.70;1.60;;;22.40;67.90;;;;;;10231023;28;20245;-70
2023/06/28 20:35:10;;;;;;;3.50;1.80;;;22.20;68.90;;;;;;10221915;28;20216;-71
2023/06/28 20:40:11;;;;;;;5.87;2.07;;;22.10;69.90;;;;;;10227716;28;20189;-70
2023/06/28 20:45:12;;;;;;;2.87;2.13;;;21.90;70.70;;;;;;10230767;28;20582;-69
2023/06/28 20:50:12;;;;;;;7.37;2.20;;;21.80;71.50;;;;;;10215491;28;20184;-70
2023/06/28 20:55:13;;;;;;;3.37;2.13;;;21.80;71.80;;;;;;10220931;28;20215;-70
2023/06/28 21:00:15;;;;;;;4.07;2.30;;;21.70;72.30;;;;;;10224038;28;20211;-70
2023/06/28 21:05:16;;;;;;;4.23;2.37;;;21.60;72.80;;;;;;10213888;28;20196;-70
2023/06/28 21:10:16;;;;;;;4.67;2.40;;;21.50;73.20;;;;;;10235605;28;20556;-70
2023/06/28 21:15:17;;;;;;;3.27;2.27;;;21.40;73.80;;;;;;10242526;28;20369;-66
2023/06/28 21:20:17;;;;;;;5.07;2.37;;;21.30;74.40;;;;;;10233159;28;20666;-68
2023/06/28 21:25:18;;;;;;;4.10;2.70;;;21.30;74.70;;;;;;10221823;28;20195;-66
2023/06/28 21:30:19;;;;;;;13.03;3.60;;;21.30;75.60;;;;;;10228995;28;20200;-68
2023/06/28 21:35:20;;;;;;;5.77;2.77;;;21.30;74.90;;;;;;10226762;28;20298;-66
2023/06/28 21:40:21;;;;;;;7.47;2.73;;;21.30;75.40;;;;;;10220792;28;20195;-77
2023/06/28 21:45:21;;;;;;;2.80;2.00;;;21.20;75.40;;;;;;10219781;28;20245;-71
2023/06/28 21:50:22;;;;;;;4.20;2.40;;;21.10;76.80;;;;;;10221985;28;20683;-77
2023/06/28 21:55:26;;;;;;;4.17;2.30;;;21.00;76.30;;;;;;10256802;28;20212;-70
2023/06/28 22:00:27;;;;;;;3.13;2.13;;;20.90;76.80;;;;;;10228709;28;20224;-72
2023/06/28 22:05:28;;;;;;;5.30;2.53;;;20.80;77.40;;;;;;10233038;28;20203;-71
2023/06/28 22:10:28;;;;;;;6.27;3.03;;;20.80;77.90;;;;;;10220509;28;20673;-70
2023/06/28 22:15:32;;;;;;;4.03;2.70;;;20.70;78.50;;;;;;10222995;28;20231;-72
2023/06/28 22:20:36;;;;;;;4.40;3.10;;;20.60;79.00;;;;;;10237023;28;20252;-71
2023/06/28 22:25:39;;;;;;;4.43;2.40;;;20.50;79.40;;;;;;10221211;28;20219;-71
2023/06/28 22:30:40;;;;;;;4.47;2.93;;;20.40;79.80;;;;;;10222652;28;20230;-71
2023/06/28 22:35:41;;;;;;;4.87;3.30;;;20.40;80.40;;;;;;10229228;28;20773;-69
2023/06/28 22:40:41;;;;;;;5.30;3.57;;;20.30;81.20;;;;;;10227249;28;20248;-70
2023/06/28 22:45:42;;;;;;;6.23;3.90;;;20.20;81.50;;;;;;10221314;28;20223;-69
2023/06/28 22:50:46;;;;;;;3.97;3.00;;;20.10;82.00;;;;;;10225776;28;20234;-69
2023/06/28 22:55:48;;;;;;;5.07;3.40;;;20.10;82.30;;;;;;10225441;28;20296;-69
2023/06/28 23:00:50;;;;;;;5.87;3.30;;;20.10;82.40;;;;;;10224624;28;20322;-69
2023/06/28 23:05:53;;;;;;;3.37;2.87;;;20.00;82.90;;;;;;10226384;28;20223;-73
2023/06/28 23:10:55;;;;;;;3.93;3.03;;;19.90;83.00;;;;;;10224668;28;20228;-74
2023/06/28 23:15:56;;;;;;;4.83;3.33;;;19.90;83.20;;;;;;10231552;28;20334;-73
2023/06/28 23:20:57;;;;;;;5.43;3.63;;;19.90;83.60;;;;;;10222042;28;20826;-72
2023/06/28 23:25:57;;;;;;;4.57;3.03;;;19.90;83.90;;;;;;10240534;28;20245;-71
2023/06/28 23:31:00;;;;;;;5.93;3.30;;;19.80;84.40;;;;;;10226517;28;20215;-72
2023/06/28 23:36:01;;;;;;;4.20;3.00;;;19.80;84.60;;;;;;10221470;28;20223;-71
2023/06/28 23:41:04;;;;;;;4.33;3.00;;;19.70;84.80;;;;;;10232635;28;20219;-70
2023/06/28 23:46:08;;;;;;;4.93;2.60;;;19.70;85.00;;;;;;10215874;28;20232;-71
2023/06/28 23:51:08;;;;;;;4.07;2.80;;;19.60;85.20;;;;;;10223055;28;20252;-71
2023/06/28 23:56:10;;;;;;;4.37;2.70;;;19.60;85.40;;;;;;10229565;28;20325;-69
